Time;durP1;ratioP1;P1;durP2;ratioP2;P2;SDS_P1;SDS_P2;PMS_P1;PMS_P2;Temp;Humidity;BMP_temperature;BMP_pressure;BME280_temperature;BME280_humidity;BME280_pressure;Samples;Min_cycle;Max_cycle;Signal;HPM_P1;HPM_P2
2022/12/11 00:01:46;;;;;;;;;36.00;26.33;;;;;0.58;78.91;98480.81;5015518;28;45440;-77
2022/12/11 00:04:12;;;;;;;;;31.33;27.33;;;;;0.54;79.09;98476.50;5013448;28;46522;-77
2022/12/11 00:06:37;;;;;;;;;38.67;34.67;;;;;0.53;79.13;98477.38;5016348;28;45322;-76
2022/12/11 00:09:02;;;;;;;;;29.00;26.67;;;;;0.51;78.90;98460.97;5015676;28;45622;-76
2022/12/11 00:11:28;;;;;;;;;17.33;13.67;;;;;0.56;78.83;98484.28;5004304;28;45449;-77
2022/12/11 00:13:53;;;;;;;;;33.67;22.67;;;;;0.53;79.38;98469.59;5013406;28;45992;-76
2022/12/11 00:16:19;;;;;;;;;27.00;24.67;;;;;0.51;78.79;98478.28;5014060;28;45405;-76
2022/12/11 00:18:44;;;;;;;;;27.00;22.67;;;;;0.53;79.12;98486.91;5024762;28;45444;-76
2022/12/11 00:21:13;;;;;;;;;28.33;25.33;;;;;0.54;78.97;98483.44;5007971;28;45518;-77
2022/12/11 00:23:39;;;;;;;;;42.00;37.33;;;;;0.54;78.61;98504.19;5011159;28;46182;-77
2022/12/11 00:26:12;;;;;;;;;32.33;28.00;;;;;0.56;78.82;98492.06;5011980;28;45535;-76
2022/12/11 00:28:37;;;;;;;;;42.33;31.67;;;;;0.55;79.07;98477.38;5007891;28;45516;-76
2022/12/11 00:31:08;;;;;;;;;32.33;23.00;;;;;0.53;78.96;98498.13;5012482;28;45503;-77
2022/12/11 00:33:33;;;;;;;;;37.67;36.00;;;;;0.52;79.56;98487.78;5003187;28;46560;-76
2022/12/11 00:35:59;;;;;;;;;23.33;19.33;;;;;0.50;79.40;98486.97;5015419;28;45421;-77
2022/12/11 00:38:25;;;;;;;;;41.33;29.00;;;;;0.44;79.40;98502.56;5008413;28;45434;-77
2022/12/11 00:40:50;;;;;;;;;29.00;20.00;;;;;0.45;79.42;98512.94;5007495;28;45365;-76
2022/12/11 00:43:16;;;;;;;;;38.67;28.00;;;;;0.44;79.54;98513.78;5010138;28;46357;-76
2022/12/11 00:45:44;;;;;;;;;28.67;24.00;;;;;0.46;79.58;98506.00;5009475;28;45514;-76
2022/12/11 00:48:11;;;;;;;;;40.00;28.33;;;;;0.44;79.60;98518.97;5010596;28;45535;-76
2022/12/11 00:50:38;;;;;;;;;33.67;30.00;;;;;0.46;79.67;98535.38;4997744;28;45496;-77
2022/12/11 00:53:05;;;;;;;;;27.00;23.00;;;;;0.45;79.13;98545.78;5006123;28;46414;-77
2022/12/11 00:55:30;;;;;;;;;39.33;30.33;;;;;0.43;79.63;98568.25;5012945;28;45405;-76
2022/12/11 00:57:59;;;;;;;;;47.00;41.00;;;;;0.45;78.85;98520.69;5011065;28;45622;-76
2022/12/11 01:00:25;;;;;;;;;32.00;27.33;;;;;0.41;78.83;98515.56;5004481;28;45458;-77
2022/12/11 01:02:50;;;;;;;;;32.67;30.33;;;;;0.35;78.53;98540.66;5010674;28;46092;-76
2022/12/11 01:05:16;;;;;;;;;37.67;28.33;;;;;0.32;78.82;98527.75;4997436;28;45372;-77
2022/12/11 01:07:42;;;;;;;;;33.67;32.67;;;;;0.29;78.98;98501.84;5002010;28;45378;-76
2022/12/11 01:10:24;;;;;;;;;34.33;28.67;;;;;0.28;79.28;98507.91;5000621;28;45336;-76
2022/12/11 01:12:50;;;;;;;;;20.33;19.00;;;;;0.25;78.91;98520.00;5039409;28;46526;-77
2022/12/11 01:15:17;;;;;;;;;21.00;19.00;;;;;0.27;79.18;98518.28;5005024;28;45380;-76
2022/12/11 01:17:42;;;;;;;;;30.67;21.67;;;;;0.22;78.64;98522.63;5010415;28;45469;-76
2022/12/11 01:20:08;;;;;;;;;32.67;26.00;;;;;0.21;79.35;98528.69;5006800;28;45349;-76
2022/12/11 01:22:33;;;;;;;;;41.33;36.00;;;;;0.20;78.68;98521.78;5024206;28;48511;-76
2022/12/11 01:24:59;;;;;;;;;31.00;29.33;;;;;0.19;79.08;98533.88;5010008;28;45484;-76
2022/12/11 01:27:24;;;;;;;;;30.00;23.00;;;;;0.17;79.17;98545.16;5011674;28;45962;-76
2022/12/11 01:29:50;;;;;;;;;30.00;25.33;;;;;0.14;79.89;98535.66;4998193;28;45488;-76
2022/12/11 01:32:16;;;;;;;;;37.67;31.33;;;;;0.14;79.47;98558.13;5007374;28;46439;-76
2022/12/11 01:34:41;;;;;;;;;31.33;23.00;;;;;0.13;79.91;98552.09;5007113;28;45521;-76
2022/12/11 01:37:07;;;;;;;;;28.00;24.00;;;;;0.15;79.42;98568.50;5011420;28;45526;-77
2022/12/11 01:39:32;;;;;;;;;32.33;26.00;;;;;0.14;79.55;98534.81;5042925;28;45684;-77
2022/12/11 01:41:59;;;;;;;;;22.33;15.33;;;;;0.13;79.88;98540.88;5021823;28;47896;-77
2022/12/11 01:44:24;;;;;;;;;31.00;24.67;;;;;0.13;79.69;98546.03;4998481;28;45480;-76
2022/12/11 01:46:50;;;;;;;;;38.00;32.33;;;;;0.12;80.07;98560.72;5002709;28;45436;-76
2022/12/11 01:49:19;;;;;;;;;31.00;28.00;;;;;0.09;79.38;98544.34;5001365;28;45384;-76
2022/12/11 01:51:52;;;;;;;;;34.67;32.67;;;;;0.12;79.82;98533.97;5006965;28;46436;-76
2022/12/11 01:54:21;;;;;;;;;16.67;10.00;;;;;0.13;79.71;98554.69;5003713;28;45506;-76
2022/12/11 01:56:50;;;;;;;;;31.00;23.67;;;;;0.11;80.33;98553.81;5010119;28;45480;-76
2022/12/11 01:59:19;;;;;;;;;35.67;30.33;;;;;0.13;80.08;98564.19;5008461;28;45536;-76
2022/12/11 02:02:02;;;;;;;;;38.67;31.00;;;;;0.12;80.25;98557.28;5022095;28;47857;-76
2022/12/11 02:04:28;;;;;;;;;24.67;22.33;;;;;0.12;80.06;98572.81;5007420;28;45476;-76
2022/12/11 02:06:54;;;;;;;;;29.33;26.33;;;;;0.12;80.09;98565.06;5009673;28;45459;-76
2022/12/11 02:09:26;;;;;;;;;32.00;29.00;;;;;0.12;79.64;98552.09;4998828;28;45386;-76
2022/12/11 02:12:20;;;;;;;;;33.33;28.33;;;;;0.10;79.85;98571.97;5003091;28;45426;-75
2022/12/11 02:15:04;;;;;;;;;30.67;22.33;;;;;0.07;80.21;98582.34;4987878;28;45382;-76
2022/12/11 02:17:54;;;;;;;;;30.67;26.67;;;;;0.07;80.23;98583.22;5041967;28;45588;-76
2022/12/11 02:20:30;;;;;;;;;30.67;26.33;;;;;0.08;79.71;98581.50;5009849;28;45369;-76
2022/12/11 02:23:21;;;;;;;;;23.33;17.67;;;;;0.07;79.91;98577.19;4995197;28;46634;-75
2022/12/11 02:26:05;;;;;;;;;24.00;21.00;;;;;0.09;79.70;98593.56;5003224;28;45382;-76
2022/12/11 02:28:44;;;;;;;;;42.00;34.67;;;;;0.08;80.04;98576.31;5021713;28;45520;-76
2022/12/11 02:31:16;;;;;;;;;27.00;18.33;;;;;0.07;80.03;98603.94;5035912;28;45375;-76
2022/12/11 02:33:57;;;;;;;;;44.33;34.67;;;;;0.05;80.16;98582.38;5032520;28;46753;-77
2022/12/11 02:36:25;;;;;;;;;10.33;7.67;;;;;0.05;80.17;98577.19;5009797;28;45374;-76
2022/12/11 02:38:53;;;;;;;;;41.33;31.67;;;;;0.02;79.72;98584.09;5009796;28;45503;-75
2022/12/11 02:41:22;;;;;;;;;42.00;32.00;;;;;-0.01;79.59;98578.09;5026555;28;45460;-76
2022/12/11 02:43:49;;;;;;;;;34.33;30.00;;;;;-0.03;80.59;98621.28;4995044;28;48143;-76
2022/12/11 02:46:18;;;;;;;;;26.33;25.33;;;;;-0.04;80.38;98613.53;5009562;28;45408;-76
2022/12/11 02:48:46;;;;;;;;;26.00;24.33;;;;;-0.05;80.11;98606.63;4997313;28;45448;-76
2022/12/11 02:51:14;;;;;;;;;28.33;24.00;;;;;-0.09;80.28;98585.06;5001634;28;45552;-76
2022/12/11 02:53:41;;;;;;;;;34.67;29.67;;;;;-0.11;80.08;98593.69;4996261;28;45439;-76
2022/12/11 02:56:15;;;;;;;;;33.33;24.67;;;;;-0.09;80.20;98581.59;5012906;28;45406;-76
2022/12/11 02:59:03;;;;;;;;;34.00;26.33;;;;;-0.12;80.63;98576.44;5006581;28;45472;-76
2022/12/11 03:01:29;;;;;;;;;26.33;19.33;;;;;-0.14;80.78;98609.25;4997096;28;45338;-76
2022/12/11 03:03:55;;;;;;;;;36.00;31.67;;;;;-0.15;80.41;98594.59;5037309;28;45476;-76
2022/12/11 03:06:27;;;;;;;;;22.00;19.33;;;;;-0.19;80.26;98565.28;5001777;28;45352;-75
2022/12/11 03:08:53;;;;;;;;;28.00;24.67;;;;;-0.21;80.17;98594.63;5008745;28;45486;-75
2022/12/11 03:11:18;;;;;;;;;30.67;29.67;;;;;-0.24;80.24;98558.38;5001883;28;45501;-75
2022/12/11 03:13:43;;;;;;;;;33.00;26.67;;;;;-0.27;80.53;98561.00;5036025;28;48251;-76
2022/12/11 03:16:34;;;;;;;;;29.33;20.33;;;;;-0.30;80.82;98556.69;5003170;28;45381;-76
2022/12/11 03:19:12;;;;;;;;;26.33;21.33;;;;;-0.31;80.55;98557.56;5006997;28;45492;-76
2022/12/11 03:21:37;;;;;;;;;30.67;21.00;;;;;-0.33;80.74;98572.22;5007916;28;45825;-75
2022/12/11 03:24:09;;;;;;;;;26.67;24.33;;;;;-0.33;80.56;98543.75;5010489;28;46028;-75
2022/12/11 03:26:44;;;;;;;;;25.00;23.33;;;;;-0.34;80.67;98554.16;5014020;28;45454;-75
2022/12/11 03:29:20;;;;;;;;;31.33;28.67;;;;;-0.31;80.56;98570.50;5012414;28;45496;-75
2022/12/11 03:32:18;;;;;;;;;57.00;48.33;;;;;-0.31;81.16;98560.13;5009148;28;45425;-74
2022/12/11 03:34:53;;;;;;;;;35.00;34.67;;;;;-0.37;81.15;98552.44;5029951;28;47241;-76
2022/12/11 03:37:22;;;;;;;;;37.33;35.33;;;;;-0.35;81.03;98571.41;5028862;28;46097;-74
2022/12/11 03:39:52;;;;;;;;;30.67;23.00;;;;;-0.33;80.88;98568.78;5006870;28;45434;-76
2022/12/11 03:42:20;;;;;;;;;28.67;22.33;;;;;-0.33;80.97;98561.88;5021303;28;45765;-76
2022/12/11 03:44:50;;;;;;;;;35.00;22.33;;;;;-0.36;80.61;98552.44;5003811;28;45501;-76
2022/12/11 03:47:20;;;;;;;;;36.33;24.67;;;;;-0.36;80.76;98547.25;5010294;28;45393;-76
2022/12/11 03:49:48;;;;;;;;;32.00;25.00;;;;;-0.37;80.66;98558.47;5005991;28;45508;-76
2022/12/11 03:52:15;;;;;;;;;24.67;21.00;;;;;-0.33;80.54;98540.28;5047495;28;45626;-76
2022/12/11 03:54:44;;;;;;;;;46.00;28.00;;;;;-0.36;80.61;98548.97;5003231;28;46415;-76
2022/12/11 03:57:15;;;;;;;;;41.00;37.00;;;;;-0.33;80.98;98548.06;4997007;28;45358;-75
2022/12/11 03:59:40;;;;;;;;;36.33;28.33;;;;;-0.34;81.05;98552.41;5005014;28;45458;-79
2022/12/11 04:02:10;;;;;;;;;38.00;31.67;;;;;-0.32;80.94;98549.78;5008688;28;45420;-76
2022/12/11 04:04:39;;;;;;;;;40.33;27.33;;;;;-0.33;80.38;98535.97;5034011;28;47224;-77
2022/12/11 04:07:05;;;;;;;;;24.67;21.33;;;;;-0.35;80.81;98545.50;4999672;28;45495;-76
2022/12/11 04:09:31;;;;;;;;;31.67;27.67;;;;;-0.34;80.68;98552.41;5008146;28;45587;-76
2022/12/11 04:11:56;;;;;;;;;31.67;24.33;;;;;-0.37;80.80;98535.16;5015617;28;45398;-76
2022/12/11 04:17:05;;;;;;;;;32.00;26.67;;;;;-0.36;80.82;98536.88;5008313;28;45492;-76
2022/12/11 04:24:51;;;;;;;;;44.67;38.33;;;;;-0.43;82.07;98548.13;5012519;28;45582;-75
2022/12/11 04:27:47;;;;;;;;;34.67;26.33;;;;;-0.42;81.41;98529.16;5015476;28;45373;-74
2022/12/11 04:30:05;;;;;;;;;33.00;24.33;;;;;-0.45;81.55;98546.41;5001470;28;45573;-75
2022/12/11 04:32:30;;;;;;;;;45.33;34.67;;;;;-0.47;81.83;98525.72;5007458;28;45421;-74
2022/12/11 04:34:56;;;;;;;;;37.33;27.33;;;;;-0.48;81.51;98520.53;5000783;28;45909;-76
2022/12/11 04:37:21;;;;;;;;;26.00;20.67;;;;;-0.47;81.69;98517.09;4999362;28;45314;-76
2022/12/11 04:39:46;;;;;;;;;40.33;33.67;;;;;-0.48;81.93;98517.94;5034199;28;45602;-76
2022/12/11 04:42:12;;;;;;;;;33.00;22.33;;;;;-0.50;81.91;98520.53;5003296;28;45360;-76
2022/12/11 04:44:37;;;;;;;;;26.67;23.00;;;;;-0.48;82.12;98547.28;5005250;28;45540;-76
2022/12/11 04:47:03;;;;;;;;;34.33;25.33;;;;;-0.48;82.06;98531.75;5013054;28;45484;-76
2022/12/11 04:49:28;;;;;;;;;32.67;29.33;;;;;-0.50;81.71;98523.13;5000975;28;45698;-76
2022/12/11 04:51:53;;;;;;;;;30.33;29.67;;;;;-0.48;82.33;98517.94;5012304;28;45404;-76
2022/12/11 04:54:19;;;;;;;;;48.67;41.33;;;;;-0.47;81.66;98519.66;5004483;28;46576;-75
2022/12/11 04:56:44;;;;;;;;;51.00;40.00;;;;;-0.49;82.09;98530.03;5030034;28;45466;-76
2022/12/11 04:59:09;;;;;;;;;33.33;23.00;;;;;-0.47;81.87;98506.72;5003404;28;45444;-76
2022/12/11 05:01:35;;;;;;;;;30.33;24.00;;;;;-0.47;81.65;98514.50;4995944;28;45588;-75
2022/12/11 05:04:00;;;;;;;;;40.00;29.00;;;;;-0.50;81.79;98504.16;5002323;28;46452;-76
2022/12/11 05:06:26;;;;;;;;;43.33;39.00;;;;;-0.53;81.98;98518.00;5003231;28;45412;-76
2022/12/11 05:08:52;;;;;;;;;37.33;29.67;;;;;-0.54;81.95;98511.09;5006171;28;45394;-76
2022/12/11 05:11:17;;;;;;;;;37.00;31.67;;;;;-0.54;82.35;98513.69;5004406;28;45406;-76
2022/12/11 05:13:43;;;;;;;;;34.67;27.33;;;;;-0.55;82.01;98530.09;5037477;28;45603;-76
2022/12/11 05:16:12;;;;;;;;;39.00;37.33;;;;;-0.53;82.44;98512.81;5005149;28;45406;-75
2022/12/11 05:18:37;;;;;;;;;27.00;22.33;;;;;-0.54;82.15;98499.88;5010040;28;45514;-76
2022/12/11 05:21:06;;;;;;;;;28.00;20.00;;;;;-0.56;82.58;98518.00;5008605;28;45444;-76
2022/12/11 05:23:32;;;;;;;;;29.67;20.00;;;;;-0.56;82.54;98522.31;5011207;28;46055;-76
2022/12/11 05:26:07;;;;;;;;;27.67;21.33;;;;;-0.57;82.70;98505.94;5011490;28;45385;-76
2022/12/11 05:28:36;;;;;;;;;39.00;37.00;;;;;-0.62;82.68;98545.66;5007690;28;45347;-75
2022/12/11 05:31:04;;;;;;;;;17.00;13.67;;;;;-0.62;82.91;98524.94;5013049;28;45367;-76
2022/12/11 05:33:29;;;;;;;;;42.67;28.67;;;;;-0.63;82.83;98542.19;5009676;28;45992;-75
2022/12/11 05:35:55;;;;;;;;;32.00;27.33;;;;;-0.66;82.50;98547.38;5002672;28;45430;-76
2022/12/11 05:38:21;;;;;;;;;42.33;37.67;;;;;-0.63;82.91;98523.22;4997607;28;45527;-75
2022/12/11 05:41:01;;;;;;;;;39.33;28.33;;;;;-0.69;82.68;98520.69;4997703;28;45513;-75
2022/12/11 05:43:28;;;;;;;;;32.67;29.00;;;;;-0.69;82.79;98542.25;4998717;28;46458;-76
2022/12/11 05:45:55;;;;;;;;;28.33;25.33;;;;;-0.73;82.67;98525.00;5004096;28;45448;-76
2022/12/11 05:48:20;;;;;;;;;24.00;19.00;;;;;-0.72;82.58;98514.66;5003188;28;45537;-76
2022/12/11 05:50:59;;;;;;;;;27.67;19.67;;;;;-0.73;82.43;98561.22;5005394;28;45563;-76
2022/12/11 05:53:26;;;;;;;;;25.33;18.67;;;;;-0.75;82.26;98531.91;5008153;28;46195;-75
2022/12/11 05:55:51;;;;;;;;;20.33;18.00;;;;;-0.78;82.11;98526.75;5009398;28;45446;-76
2022/12/11 05:58:17;;;;;;;;;45.00;37.00;;;;;-0.76;82.18;98525.00;5007508;28;45339;-76
2022/12/11 06:00:43;;;;;;;;;40.33;34.33;;;;;-0.76;81.58;98525.88;4996670;28;45498;-76
2022/12/11 06:03:08;;;;;;;;;31.00;30.67;;;;;-0.78;81.39;98542.28;4996792;28;45814;-76
2022/12/11 06:05:38;;;;;;;;;32.00;24.00;;;;;-0.77;81.63;98544.00;5030995;28;45435;-75
2022/12/11 06:08:03;;;;;;;;;33.67;29.00;;;;;-0.80;82.31;98521.56;5002225;28;45399;-76
2022/12/11 06:10:29;;;;;;;;;30.67;25.00;;;;;-0.80;81.98;98531.94;5004916;28;45421;-76
2022/12/11 06:12:54;;;;;;;;;37.33;24.33;;;;;-0.82;81.79;98535.38;5011865;28;45554;-76
2022/12/11 06:15:20;;;;;;;;;15.33;14.00;;;;;-0.82;82.00;98537.97;5006627;28;45373;-76
2022/12/11 06:17:45;;;;;;;;;34.00;24.67;;;;;-0.84;81.83;98514.69;5024141;28;45382;-76
2022/12/11 06:20:11;;;;;;;;;34.00;29.33;;;;;-0.84;81.68;98516.44;5003626;28;45437;-76
2022/12/11 06:22:36;;;;;;;;;31.67;27.00;;;;;-0.82;81.96;98519.84;5008548;28;46160;-76
2022/12/11 06:25:02;;;;;;;;;38.33;31.00;;;;;-0.85;82.03;98536.28;5005846;28;45322;-76
2022/12/11 06:27:27;;;;;;;;;28.33;18.67;;;;;-0.84;81.80;98524.22;5011107;28;45484;-76
2022/12/11 06:29:52;;;;;;;;;30.67;27.00;;;;;-0.84;81.78;98522.44;5007454;28;45584;-76
2022/12/11 06:32:18;;;;;;;;;26.33;21.33;;;;;-0.85;82.15;98520.75;5013000;28;46105;-76
2022/12/11 06:34:43;;;;;;;;;36.33;32.00;;;;;-0.84;81.96;98516.44;5009024;28;45515;-76
2022/12/11 06:37:09;;;;;;;;;27.00;23.33;;;;;-0.85;82.17;98519.91;4995626;28;45363;-75
2022/12/11 06:39:34;;;;;;;;;35.00;29.33;;;;;-0.86;82.31;98503.50;4997297;28;45494;-76
2022/12/11 06:41:59;;;;;;;;;17.00;14.33;;;;;-0.85;82.73;98507.81;4997741;28;45440;-76
2022/12/11 06:44:25;;;;;;;;;35.00;29.00;;;;;-0.84;82.62;98514.69;4999983;28;45542;-75
2022/12/11 06:46:50;;;;;;;;;36.67;26.67;;;;;-0.83;82.81;98516.41;5009451;28;45489;-76
2022/12/11 06:49:15;;;;;;;;;45.33;36.67;;;;;-0.81;82.58;98524.16;4996137;28;45566;-75
2022/12/11 06:51:41;;;;;;;;;26.00;22.33;;;;;-0.82;82.61;98538.84;5010830;28;46045;-76
2022/12/11 06:54:06;;;;;;;;;30.33;23.67;;;;;-0.82;82.45;98541.41;5001644;28;45477;-76
2022/12/11 06:56:34;;;;;;;;;39.33;30.33;;;;;-0.79;82.96;98540.53;5006587;28;45438;-76
2022/12/11 06:58:59;;;;;;;;;29.00;25.67;;;;;-0.80;82.57;98528.47;5006467;28;45477;-76
2022/12/11 07:01:26;;;;;;;;;23.00;23.00;;;;;-0.80;82.34;98533.66;4993707;28;45428;-75
2022/12/11 07:03:57;;;;;;;;;39.33;26.00;;;;;-0.80;82.25;98536.25;4996711;28;45365;-75
2022/12/11 07:06:23;;;;;;;;;31.67;21.00;;;;;-0.79;82.20;98519.84;4996409;28;45574;-76
2022/12/11 07:08:49;;;;;;;;;31.33;25.33;;;;;-0.76;81.86;98517.25;4998162;28;45365;-76
2022/12/11 07:11:16;;;;;;;;;19.67;18.33;;;;;-0.76;82.04;98518.13;5003576;28;46472;-76
2022/12/11 07:13:42;;;;;;;;;50.00;32.00;;;;;-0.77;81.89;98521.56;5012188;28;45413;-76
2022/12/11 07:16:10;;;;;;;;;21.33;20.00;;;;;-0.78;81.75;98512.09;5003494;28;45417;-76
2022/12/11 07:18:42;;;;;;;;;20.00;17.33;;;;;-0.79;81.72;98520.72;5007103;28;45556;-76
2022/12/11 07:21:10;;;;;;;;;28.00;18.67;;;;;-0.82;81.73;98525.03;5012768;28;45424;-76
2022/12/11 07:23:36;;;;;;;;;38.33;32.33;;;;;-0.83;81.08;98534.53;5007231;28;45527;-75
2022/12/11 07:26:07;;;;;;;;;26.67;19.33;;;;;-0.84;81.64;98519.03;5009531;28;45575;-76
2022/12/11 07:28:33;;;;;;;;;35.67;28.00;;;;;-0.85;81.65;98525.94;5007505;28;45436;-76
2022/12/11 07:31:06;;;;;;;;;25.67;21.67;;;;;-0.84;81.65;98522.44;5003508;28;45496;-76
2022/12/11 07:33:32;;;;;;;;;32.67;25.67;;;;;-0.83;81.40;98531.94;5022963;28;46249;-76
2022/12/11 07:36:01;;;;;;;;;34.33;29.00;;;;;-0.85;81.26;98523.34;5007999;28;45454;-76
2022/12/11 07:38:27;;;;;;;;;32.67;30.67;;;;;-0.84;81.42;98524.22;4996215;28;45540;-75
2022/12/11 07:40:52;;;;;;;;;32.67;30.33;;;;;-0.84;81.37;98532.78;5004949;28;46471;-75
2022/12/11 07:43:17;;;;;;;;;24.33;19.33;;;;;-0.83;81.18;98554.34;5000302;28;45362;-76
2022/12/11 07:45:43;;;;;;;;;28.00;20.33;;;;;-0.83;81.20;98542.28;5000258;28;45414;-76
2022/12/11 07:48:08;;;;;;;;;27.67;24.33;;;;;-0.82;80.91;98525.88;5007057;28;45496;-76
2022/12/11 07:50:33;;;;;;;;;25.00;19.67;;;;;-0.80;81.05;98538.81;5005984;28;46268;-76
2022/12/11 07:52:59;;;;;;;;;41.33;30.33;;;;;-0.76;80.70;98528.47;5006357;28;45460;-75
2022/12/11 07:55:24;;;;;;;;;34.67;26.00;;;;;-0.74;80.85;98523.28;5004461;28;45850;-76
2022/12/11 07:57:50;;;;;;;;;25.33;22.67;;;;;-0.73;80.45;98540.53;5007762;28;45482;-76
2022/12/11 08:00:16;;;;;;;;;28.00;27.33;;;;;-0.76;80.47;98544.00;5006439;28;45597;-76
2022/12/11 08:02:41;;;;;;;;;31.00;27.00;;;;;-0.76;80.75;98548.31;5000416;28;45555;-76
2022/12/11 08:05:07;;;;;;;;;37.00;30.33;;;;;-0.76;80.82;98562.09;5005532;28;45756;-76
2022/12/11 08:07:34;;;;;;;;;19.00;19.00;;;;;-0.76;81.08;98559.50;5001141;28;45687;-76
2022/12/11 08:10:00;;;;;;;;;25.67;22.00;;;;;-0.78;80.73;98563.84;5007899;28;45571;-76
2022/12/11 08:12:25;;;;;;;;;38.67;32.00;;;;;-0.78;81.05;98558.66;5004402;28;45556;-76
2022/12/11 08:14:51;;;;;;;;;28.67;17.33;;;;;-0.78;80.63;98558.66;5004772;28;45637;-76
2022/12/11 08:17:16;;;;;;;;;27.67;21.00;;;;;-0.77;80.88;98555.22;5009039;28;45545;-76
2022/12/11 08:19:41;;;;;;;;;24.67;22.33;;;;;-0.74;80.69;98588.84;5009894;28;45541;-76
2022/12/11 08:22:07;;;;;;;;;27.33;25.33;;;;;-0.72;80.39;98578.47;5005576;28;45513;-76
2022/12/11 08:24:32;;;;;;;;;33.33;29.67;;;;;-0.69;80.19;98583.66;5003692;28;46036;-76
2022/12/11 08:26:58;;;;;;;;;26.67;16.33;;;;;-0.69;79.90;98577.63;5001957;28;45370;-76
2022/12/11 08:29:23;;;;;;;;;38.00;32.00;;;;;-0.70;80.62;98569.00;5002443;28;45489;-75
2022/12/11 08:31:49;;;;;;;;;33.67;26.33;;;;;-0.66;80.38;98565.50;5004657;28;45323;-74
2022/12/11 08:34:14;;;;;;;;;45.67;36.33;;;;;-0.63;80.11;98562.03;5006544;28;45455;-76
2022/12/11 08:36:40;;;;;;;;;33.33;26.33;;;;;-0.62;80.16;98566.34;5006690;28;45402;-76
2022/12/11 08:39:05;;;;;;;;;33.33;25.33;;;;;-0.59;80.21;98559.44;5012116;28;45437;-76
2022/12/11 08:41:31;;;;;;;;;28.33;23.33;;;;;-0.55;79.99;98563.75;5011678;28;45516;-76
2022/12/11 08:43:57;;;;;;;;;39.00;27.67;;;;;-0.55;80.09;98550.81;5028632;28;45531;-76
2022/12/11 08:46:30;;;;;;;;;42.33;33.33;;;;;-0.54;79.57;98562.00;5011274;28;45485;-76
2022/12/11 08:48:56;;;;;;;;;33.67;27.67;;;;;-0.53;79.79;98554.25;5015105;28;48052;-76
2022/12/11 08:51:24;;;;;;;;;21.67;18.67;;;;;-0.50;79.83;98580.09;5038097;28;45991;-76
2022/12/11 08:53:50;;;;;;;;;31.67;26.00;;;;;-0.45;79.92;98567.13;5001807;28;45434;-72
2022/12/11 08:56:19;;;;;;;;;28.67;22.67;;;;;-0.35;79.64;98558.47;5011046;28;45519;-68
2022/12/11 08:58:45;;;;;;;;;32.00;21.00;;;;;-0.30;79.15;98564.47;5012642;28;45393;-70
2022/12/11 09:01:28;;;;;;;;;31.67;24.33;;;;;-0.31;79.06;98578.28;5001359;28;45415;-71
2022/12/11 09:03:55;;;;;;;;;35.67;28.33;;;;;-0.29;79.10;98563.59;5006286;28;45368;-70
2022/12/11 09:06:23;;;;;;;;;29.33;26.67;;;;;-0.25;78.91;98565.28;5011626;28;45488;-71
2022/12/11 09:08:50;;;;;;;;;34.67;30.00;;;;;-0.21;78.31;98566.16;5020202;28;47894;-71
2022/12/11 09:11:18;;;;;;;;;31.33;25.00;;;;;-0.21;79.00;98572.19;5005730;28;45504;-70
2022/12/11 09:13:44;;;;;;;;;26.00;25.67;;;;;-0.19;78.34;98567.88;5010823;28;45466;-70
2022/12/11 09:16:13;;;;;;;;;37.00;26.67;;;;;-0.19;78.47;98570.44;5009759;28;45469;-70
2022/12/11 09:18:39;;;;;;;;;22.67;22.33;;;;;-0.23;78.19;98567.88;5012155;28;47094;-71
2022/12/11 09:21:12;;;;;;;;;33.33;31.33;;;;;-0.24;78.35;98571.34;5014290;28;45373;-70
2022/12/11 09:23:38;;;;;;;;;28.00;25.67;;;;;-0.25;77.93;98554.94;5013638;28;45551;-70
2022/12/11 09:26:05;;;;;;;;;31.67;23.33;;;;;-0.23;78.52;98560.97;5010573;28;45489;-70
2022/12/11 09:28:31;;;;;;;;;38.33;29.33;;;;;-0.16;78.27;98548.81;5006273;28;45460;-70
2022/12/11 09:30:56;;;;;;;;;31.00;23.33;;;;;-0.14;78.24;98552.25;5010670;28;45406;-70
2022/12/11 09:33:22;;;;;;;;;22.33;21.00;;;;;-0.11;77.93;98550.53;5010800;28;45432;-70
2022/12/11 09:36:00;;;;;;;;;40.67;33.00;;;;;-0.08;77.59;98547.91;5006499;28;45506;-71
2022/12/11 09:38:26;;;;;;;;;36.33;22.00;;;;;-0.08;77.83;98541.88;5010872;28;46187;-70
2022/12/11 09:40:52;;;;;;;;;26.67;22.00;;;;;-0.04;77.66;98551.34;5010526;28;45491;-70
2022/12/11 09:43:29;;;;;;;;;33.33;21.00;;;;;-0.03;77.77;98553.94;5009155;28;45511;-70
2022/12/11 09:45:55;;;;;;;;;29.33;27.33;;;;;-0.01;78.08;98547.00;5005470;28;45385;-71
2022/12/11 09:48:24;;;;;;;;;28.00;22.67;;;;;0.04;77.22;98553.88;5009800;28;45917;-72
2022/12/11 09:50:53;;;;;;;;;29.00;23.00;;;;;0.05;76.80;98540.03;5000598;28;45532;-71
2022/12/11 09:53:37;;;;;;;;;42.33;28.33;;;;;0.07;77.27;98540.91;5004019;28;45503;-63
2022/12/11 09:56:06;;;;;;;;;30.00;29.00;;;;;0.09;76.88;98526.19;5008161;28;45401;-68
2022/12/11 09:58:40;;;;;;;;;26.33;21.33;;;;;0.11;77.15;98532.22;5006813;28;48459;-69
2022/12/11 10:01:26;;;;;;;;;34.00;28.67;;;;;0.13;76.51;98540.88;5006647;28;45561;-69
2022/12/11 10:04:10;;;;;;;;;34.00;32.67;;;;;0.17;77.04;98534.78;5006910;28;45485;-68
2022/12/11 10:06:41;;;;;;;;;34.33;26.00;;;;;0.21;76.50;98536.47;5012806;28;45411;-69
2022/12/11 10:09:23;;;;;;;;;29.67;22.67;;;;;0.26;76.87;98534.69;5034199;28;46020;-68
2022/12/11 10:11:57;;;;;;;;;27.67;23.33;;;;;0.30;77.11;98536.41;5003035;28;45504;-68
2022/12/11 10:14:39;;;;;;;;;31.67;29.33;;;;;0.38;76.20;98534.59;5001635;28;45305;-69
2022/12/11 10:17:24;;;;;;;;;32.67;28.33;;;;;0.42;75.84;98528.50;5009712;28;45536;-69
2022/12/11 10:19:51;;;;;;;;;33.67;31.00;;;;;0.44;75.88;98526.75;5004666;28;47427;-69
2022/12/11 10:22:23;;;;;;;;;27.33;22.00;;;;;0.47;75.88;98526.75;5011674;28;45424;-69
2022/12/11 10:25:02;;;;;;;;;37.00;30.00;;;;;0.50;75.92;98518.94;5010960;28;45499;-68
2022/12/11 10:27:33;;;;;;;;;43.00;30.33;;;;;0.52;75.53;98511.97;5007062;28;45492;-68
2022/12/11 10:30:07;;;;;;;;;38.00;27.67;;;;;0.57;75.49;98512.78;5010189;28;45507;-67
2022/12/11 10:32:55;;;;;;;;;33.67;26.67;;;;;0.68;75.71;98513.53;4993231;28;45519;-69
2022/12/11 10:35:47;;;;;;;;;37.67;30.00;;;;;0.77;75.95;98509.13;5004913;28;45475;-67
2022/12/11 10:38:32;;;;;;;;;31.33;26.67;;;;;0.87;76.07;98505.56;5036515;28;45479;-67
2022/12/11 10:41:10;;;;;;;;;38.33;29.67;;;;;0.99;75.73;98501.09;5003625;28;45641;-69
2022/12/11 10:43:46;;;;;;;;;32.33;32.33;;;;;1.09;76.21;98501.84;5006046;28;45466;-67
2022/12/11 10:46:21;;;;;;;;;30.00;26.00;;;;;1.24;75.50;98500.78;4999957;28;45515;-68
2022/12/11 10:48:52;;;;;;;;;42.00;30.00;;;;;1.36;74.95;98491.09;4993694;28;45463;-68
2022/12/11 10:51:20;;;;;;;;;35.00;26.67;;;;;1.48;74.53;98490.06;5011590;28;45694;-68
2022/12/11 10:53:52;;;;;;;;;31.67;26.33;;;;;1.65;75.13;98500.22;5021405;28;45501;-68
2022/12/11 10:56:27;;;;;;;;;23.67;16.67;;;;;1.73;73.44;98494.03;5027147;28;45448;-68
2022/12/11 10:58:55;;;;;;;;;29.33;26.67;;;;;1.75;73.29;98489.66;5002686;28;45544;-68
2022/12/11 11:01:23;;;;;;;;;33.67;29.00;;;;;1.80;73.10;98479.22;4998236;28;45460;-67
2022/12/11 11:04:34;;;;;;;;;34.00;27.33;;;;;1.84;72.92;98474.81;5002773;28;45858;-68
2022/12/11 11:07:09;;;;;;;;;40.67;31.00;;;;;1.92;72.91;98470.34;4998164;28;45486;-68
2022/12/11 11:09:35;;;;;;;;;28.67;20.00;;;;;2.00;72.66;98476.31;5035291;28;45496;-68
2022/12/11 11:12:01;;;;;;;;;31.33;27.67;;;;;2.08;73.33;98475.28;5001306;28;45453;-67
2022/12/11 11:14:26;;;;;;;;;35.67;31.00;;;;;2.19;73.74;98482.03;5005204;28;45405;-68
2022/12/11 11:16:56;;;;;;;;;36.67;32.33;;;;;2.27;72.58;98470.63;5004899;28;45626;-67
2022/12/11 11:19:28;;;;;;;;;37.00;29.67;;;;;2.41;72.57;98465.16;5006741;28;45464;-69
2022/12/11 11:22:16;;;;;;;;;38.67;30.67;;;;;2.55;71.79;98470.97;5008507;28;45372;-69
2022/12/11 11:24:46;;;;;;;;;32.33;28.33;;;;;2.60;71.24;98466.56;5012125;28;45301;-69
2022/12/11 11:27:29;;;;;;;;;41.67;31.67;;;;;2.64;71.52;98467.34;5006454;28;45533;-69
2022/12/11 11:30:01;;;;;;;;;38.00;32.67;;;;;2.62;71.08;98450.91;5026199;28;45641;-69
2022/12/11 11:32:33;;;;;;;;;39.00;29.00;;;;;2.63;70.85;98453.50;4994666;28;45680;-69
2022/12/11 11:35:11;;;;;;;;;31.00;29.33;;;;;2.68;71.23;98453.41;5033174;28;45335;-69
2022/12/11 11:37:37;;;;;;;;;40.67;29.67;;;;;2.74;71.02;98451.53;5000374;28;45508;-71